Time;durP1;ratioP1;P1;durP2;ratioP2;P2;SDS_P1;SDS_P2;PMS_P1;PMS_P2;Temp;Humidity;BMP_temperature;BMP_pressure;BME280_temperature;BME280_humidity;BME280_pressure;Samples;Min_cycle;Max_cycle;Signal;HPM_P1;HPM_P2
2023/10/05 00:03:38;;;;;;;8.00;1.38;;;;;;;;;;5060185;28;20155;-60
2023/10/05 00:06:16;;;;;;;6.28;1.70;;;;;;;;;;5072832;28;20061;-60
2023/10/05 00:08:44;;;;;;;13.65;2.42;;;;;;;;;;5062568;28;20135;-60
2023/10/05 00:11:10;;;;;;;8.35;1.80;;;;;;;;;;5066511;28;20160;-60
2023/10/05 00:13:37;;;;;;;7.80;1.65;;;;;;;;;;5080768;28;20043;-60
2023/10/05 00:16:05;;;;;;;8.38;2.00;;;;;;;;;;5081050;28;20040;-60
2023/10/05 00:18:32;;;;;;;12.18;1.98;;;;;;;;;;5075967;28;20036;-60
2023/10/05 00:21:00;;;;;;;7.70;1.67;;;;;;;;;;5078267;28;20048;-60
2023/10/05 00:23:27;;;;;;;6.80;1.90;;;;;;;;;;5077409;28;20044;-60
2023/10/05 00:25:55;;;;;;;11.55;1.80;;;;;;;;;;5082989;28;20127;-60
2023/10/05 00:28:24;;;;;;;6.68;1.40;;;;;;;;;;5081340;28;20097;-60
2023/10/05 00:30:52;;;;;;;;;;;;;;;;;;5076346;28;20044;-60
2023/10/05 00:33:18;;;;;;;;;;;;;;;;;;5075618;28;20065;-59
2023/10/05 00:35:44;;;;;;;12.90;1.70;;;;;;;;;;5080704;28;19972;-59
2023/10/05 00:40:42;;;;;;;6.15;1.80;;;;;;;;;;5072698;28;20048;-60
2023/10/05 00:43:12;;;;;;;10.88;1.70;;;;;;;;;;5074929;28;20055;-60
2023/10/05 00:45:40;;;;;;;6.88;1.70;;;;;;;;;;5077899;28;20044;-60
2023/10/05 00:48:34;;;;;;;15.82;2.30;;;;;;;;;;5062485;28;20066;-60
2023/10/05 00:51:09;;;;;;;10.40;1.65;;;;;;;;;;5062424;28;20052;-60
2023/10/05 00:53:36;;;;;;;7.32;1.50;;;;;;;;;;5081611;28;20052;-60
2023/10/05 00:56:09;;;;;;;6.78;1.80;;;;;;;;;;5080256;28;20075;-60
2023/10/05 00:58:42;;;;;;;9.50;1.25;;;;;;;;;;5079174;28;20069;-60
2023/10/05 01:01:14;;;;;;;12.70;2.05;;;;;;;;;;5056910;28;20052;-60
2023/10/05 01:06:32;;;;;;;9.50;1.83;;;;;;;;;;5080570;28;20725;-60
2023/10/05 01:09:04;;;;;;;9.50;2.20;;;;;;;;;;5082103;28;20076;-60
2023/10/05 01:11:40;;;;;;;10.15;1.58;;;;;;;;;;5068612;28;20051;-60
2023/10/05 01:14:06;;;;;;;9.98;1.70;;;;;;;;;;5063482;28;20048;-60
2023/10/05 01:16:32;;;;;;;8.77;1.70;;;;;;;;;;5078882;28;20071;-60
2023/10/05 01:19:02;;;;;;;7.00;1.88;;;;;;;;;;5079322;28;20520;-60
2023/10/05 01:21:28;;;;;;;6.25;1.70;;;;;;;;;;5074509;28;20524;-60
2023/10/05 01:23:54;;;;;;;9.73;1.88;;;;;;;;;;5079689;28;20036;-61
2023/10/05 01:26:20;;;;;;;10.45;1.88;;;;;;;;;;5072917;28;20044;-60
2023/10/05 01:28:47;;;;;;;11.88;2.13;;;;;;;;;;5071161;28;20047;-60
2023/10/05 01:31:16;;;;;;;7.15;1.50;;;;;;;;;;5078437;28;20055;-60
2023/10/05 01:33:46;;;;;;;9.82;1.52;;;;;;;;;;5065818;28;20044;-60
2023/10/05 01:36:15;;;;;;;6.10;1.73;;;;;;;;;;5067249;28;20047;-60
2023/10/05 01:38:44;;;;;;;6.05;1.50;;;;;;;;;;5065330;28;20114;-60
2023/10/05 01:41:10;;;;;;;7.53;1.35;;;;;;;;;;5067536;28;20052;-60
2023/10/05 01:43:42;;;;;;;8.55;1.90;;;;;;;;;;5065797;28;20086;-60
2023/10/05 01:46:10;;;;;;;9.82;1.70;;;;;;;;;;5084326;28;20645;-60
2023/10/05 01:48:37;;;;;;;8.63;1.73;;;;;;;;;;5084894;28;20497;-60
2023/10/05 01:51:10;;;;;;;8.05;1.73;;;;;;;;;;5083534;28;20119;-60
2023/10/05 01:53:36;;;;;;;5.70;1.58;;;;;;;;;;5063182;28;20051;-60
2023/10/05 01:56:03;;;;;;;8.60;1.60;;;;;;;;;;5080605;28;20043;-60
2023/10/05 01:58:36;;;;;;;11.93;1.85;;;;;;;;;;5084620;28;20040;-60
2023/10/05 02:01:03;;;;;;;9.45;1.63;;;;;;;;;;5076760;28;20049;-60
2023/10/05 02:03:32;;;;;;;9.18;2.08;;;;;;;;;;5084690;28;20044;-60
2023/10/05 02:05:59;;;;;;;10.75;1.80;;;;;;;;;;5075172;28;20101;-61
2023/10/05 02:08:33;;;;;;;13.50;2.15;;;;;;;;;;5079513;28;20059;-60
2023/10/05 02:11:01;;;;;;;7.80;1.98;;;;;;;;;;5068669;28;20062;-60
2023/10/05 02:13:29;;;;;;;9.00;1.35;;;;;;;;;;5080124;28;20049;-61
2023/10/05 02:15:58;;;;;;;14.00;1.65;;;;;;;;;;5083388;28;20048;-60
2023/10/05 02:18:24;;;;;;;6.50;1.70;;;;;;;;;;5080360;28;20040;-60
2023/10/05 02:21:17;;;;;;;11.05;1.60;;;;;;;;;;5082112;28;20040;-60
2023/10/05 02:23:40;;;;;;;11.43;2.22;;;;;;;;;;5080472;28;20126;-60
2023/10/05 02:28:51;;;;;;;11.20;1.92;;;;;;;;;;5075526;28;20506;-60
2023/10/05 02:31:20;;;;;;;10.25;1.40;;;;;;;;;;5083734;28;20056;-61
2023/10/05 02:33:46;;;;;;;8.88;1.30;;;;;;;;;;5085221;28;20055;-60
2023/10/05 02:36:20;;;;;;;11.07;1.80;;;;;;;;;;5081091;28;20051;-59
2023/10/05 02:38:49;;;;;;;9.93;2.05;;;;;;;;;;5078986;28;20044;-60
2023/10/05 02:41:24;;;;;;;7.72;1.55;;;;;;;;;;5072572;28;20082;-60
2023/10/05 02:43:53;;;;;;;7.43;1.50;;;;;;;;;;5064232;28;20568;-60
2023/10/05 02:46:20;;;;;;;11.90;1.73;;;;;;;;;;5067530;28;20512;-60
2023/10/05 02:48:49;;;;;;;9.73;2.13;;;;;;;;;;5078430;28;20040;-59
2023/10/05 02:51:18;;;;;;;8.77;1.67;;;;;;;;;;5070357;28;20053;-60
2023/10/05 02:53:45;;;;;;;;;;;;;;;;;;5071781;28;20386;-60
2023/10/05 02:56:26;;;;;;;8.02;1.67;;;;;;;;;;5082026;28;19923;-60
2023/10/05 02:58:54;;;;;;;8.70;1.48;;;;;;;;;;5057849;28;20047;-60
2023/10/05 03:01:21;;;;;;;6.45;1.65;;;;;;;;;;5068976;28;20058;-60
2023/10/05 03:03:47;;;;;;;14.50;1.55;;;;;;;;;;5070442;28;20149;-60
2023/10/05 03:06:15;;;;;;;10.93;1.73;;;;;;;;;;5074700;28;20627;-60
2023/10/05 03:08:42;;;;;;;11.50;1.93;;;;;;;;;;5069769;28;20069;-60
2023/10/05 03:11:08;;;;;;;7.10;1.48;;;;;;;;;;5072806;28;20320;-60
2023/10/05 03:13:36;;;;;;;14.15;2.55;;;;;;;;;;5082996;28;20044;-60
2023/10/05 03:16:06;;;;;;;6.68;1.63;;;;;;;;;;5074772;28;20055;-60
2023/10/05 03:18:32;;;;;;;6.10;1.60;;;;;;;;;;5077186;28;20047;-60
2023/10/05 03:20:58;;;;;;;9.43;1.73;;;;;;;;;;5080579;28;20040;-60
2023/10/05 03:23:26;;;;;;;8.85;1.67;;;;;;;;;;5080264;28;20071;-60
2023/10/05 03:25:53;;;;;;;11.07;2.10;;;;;;;;;;5076464;28;20048;-60
2023/10/05 03:28:19;;;;;;;9.73;1.88;;;;;;;;;;5079275;28;20036;-60
2023/10/05 03:30:48;;;;;;;12.73;1.98;;;;;;;;;;5077487;28;20052;-60
2023/10/05 03:33:17;;;;;;;6.18;1.70;;;;;;;;;;5080899;28;20052;-60
2023/10/05 03:35:45;;;;;;;11.45;2.05;;;;;;;;;;5078081;28;20066;-60
2023/10/05 03:38:12;;;;;;;;;;;;;;;;;;5075467;28;20188;-60
2023/10/05 03:40:43;;;;;;;6.38;1.80;;;;;;;;;;5073898;28;19917;-60
2023/10/05 03:43:10;;;;;;;6.93;1.90;;;;;;;;;;5065520;28;20398;-60
2023/10/05 03:45:39;;;;;;;13.82;2.28;;;;;;;;;;5063850;28;20258;-60
2023/10/05 03:48:06;;;;;;;10.30;1.58;;;;;;;;;;5068368;28;20052;-60
2023/10/05 03:50:32;;;;;;;10.70;2.05;;;;;;;;;;5074649;28;20097;-60
2023/10/05 03:52:58;;;;;;;10.20;1.80;;;;;;;;;;5081613;28;20115;-60
2023/10/05 03:55:24;;;;;;;12.38;2.20;;;;;;;;;;5080838;28;20040;-60
2023/10/05 03:57:51;;;;;;;8.52;1.73;;;;;;;;;;5078742;28;20041;-60
2023/10/05 04:00:23;;;;;;;7.25;1.77;;;;;;;;;;5079965;28;20044;-60
2023/10/05 04:02:53;;;;;;;8.85;2.25;;;;;;;;;;5074768;28;20039;-60
2023/10/05 04:05:20;;;;;;;9.30;1.80;;;;;;;;;;5073576;28;20048;-60
2023/10/05 04:07:50;;;;;;;11.82;2.17;;;;;;;;;;5067690;28;20044;-60
2023/10/05 04:10:23;;;;;;;10.60;1.73;;;;;;;;;;5069134;28;20048;-60
2023/10/05 04:12:51;;;;;;;9.18;2.00;;;;;;;;;;5064250;28;20052;-60
2023/10/05 04:15:20;;;;;;;8.82;1.65;;;;;;;;;;5075882;28;20040;-60
2023/10/05 04:17:49;;;;;;;13.85;2.33;;;;;;;;;;5064806;28;20052;-60
2023/10/05 04:20:28;;;;;;;10.80;1.98;;;;;;;;;;5079076;28;20047;-60
2023/10/05 04:22:54;;;;;;;10.63;1.92;;;;;;;;;;5064482;28;20078;-60
2023/10/05 04:25:20;;;;;;;9.13;1.63;;;;;;;;;;5078442;28;20056;-60
2023/10/05 04:27:46;;;;;;;7.15;1.58;;;;;;;;;;5065094;28;20039;-60
2023/10/05 04:30:16;;;;;;;16.90;1.73;;;;;;;;;;5077646;28;20201;-60
2023/10/05 04:32:43;;;;;;;14.23;2.45;;;;;;;;;;5081831;28;20382;-60
2023/10/05 04:35:22;;;;;;;9.52;1.60;;;;;;;;;;5064467;28;20047;-60
2023/10/05 04:37:49;;;;;;;8.23;1.60;;;;;;;;;;5070033;28;20124;-60
2023/10/05 04:40:17;;;;;;;13.77;2.50;;;;;;;;;;5081658;28;20097;-60
2023/10/05 04:42:43;;;;;;;11.85;1.80;;;;;;;;;;5063987;28;20050;-60
2023/10/05 04:45:14;;;;;;;10.77;1.98;;;;;;;;;;5080444;28;20050;-61
2023/10/05 04:47:41;;;;;;;9.60;2.08;;;;;;;;;;5076313;28;20076;-60
2023/10/05 04:50:07;;;;;;;15.38;2.13;;;;;;;;;;5074888;28;20504;-60
2023/10/05 04:52:34;;;;;;;11.10;1.83;;;;;;;;;;5066690;28;20045;-59
2023/10/05 04:55:17;;;;;;;14.40;2.90;;;;;;;;;;5055817;28;20055;-60
2023/10/05 04:57:49;;;;;;;7.82;1.90;;;;;;;;;;5064623;28;20044;-60
2023/10/05 05:08:32;;;;;;;11.50;1.92;;;;;;;;;;5070214;28;20055;-61
2023/10/05 05:10:58;;;;;;;12.87;1.73;;;;;;;;;;5065150;28;20394;-61
2023/10/05 05:13:27;;;;;;;10.90;2.17;;;;;;;;;;5067477;28;20279;-61
2023/10/05 05:15:53;;;;;;;12.70;2.42;;;;;;;;;;5066031;28;20426;-61
2023/10/05 05:18:19;;;;;;;9.55;1.85;;;;;;;;;;5080869;28;20588;-61
2023/10/05 05:20:45;;;;;;;10.45;2.05;;;;;;;;;;5085028;28;20048;-61
2023/10/05 05:23:16;;;;;;;12.95;1.92;;;;;;;;;;5082029;28;20392;-61
2023/10/05 05:25:44;;;;;;;8.50;1.63;;;;;;;;;;5078098;28;20460;-60
2023/10/05 05:28:10;;;;;;;15.07;2.55;;;;;;;;;;5073021;28;20080;-60
2023/10/05 05:30:36;;;;;;;7.63;1.60;;;;;;;;;;5077849;28;20047;-60
2023/10/05 05:33:09;;;;;;;12.35;2.20;;;;;;;;;;5077151;28;20068;-60
2023/10/05 05:35:36;;;;;;;12.52;1.83;;;;;;;;;;5070033;28;20136;-61
2023/10/05 05:38:02;;;;;;;13.30;2.20;;;;;;;;;;5077840;28;20040;-61
2023/10/05 05:40:29;;;;;;;10.43;1.83;;;;;;;;;;5074781;28;20382;-63
2023/10/05 05:42:56;;;;;;;13.75;2.22;;;;;;;;;;5083615;28;20081;-61
2023/10/05 05:45:22;;;;;;;9.00;2.07;;;;;;;;;;5072393;28;20048;-62
2023/10/05 05:47:48;;;;;;;18.45;2.35;;;;;;;;;;5084563;28;20047;-61
2023/10/05 05:50:18;;;;;;;14.90;2.10;;;;;;;;;;5075764;28;20401;-61
2023/10/05 05:52:47;;;;;;;9.85;2.38;;;;;;;;;;5075218;28;20068;-60
2023/10/05 05:55:23;;;;;;;12.70;2.30;;;;;;;;;;5076948;28;20064;-62
2023/10/05 05:57:50;;;;;;;13.13;2.05;;;;;;;;;;5078785;28;20036;-61
2023/10/05 06:00:18;;;;;;;8.90;1.98;;;;;;;;;;5082451;28;20044;-60
2023/10/05 06:02:44;;;;;;;15.70;1.95;;;;;;;;;;5071375;28;20553;-61
2023/10/05 06:05:14;;;;;;;13.13;2.53;;;;;;;;;;5079800;28;20048;-61
2023/10/05 06:07:42;;;;;;;17.45;2.35;;;;;;;;;;5055600;28;20136;-61
2023/10/05 06:10:12;;;;;;;12.20;2.08;;;;;;;;;;5056412;28;20128;-59
2023/10/05 06:12:51;;;;;;;12.95;1.65;;;;;;;;;;5064766;28;20051;-59
2023/10/05 06:15:17;;;;;;;;;;;;;;;;;;5058140;28;20048;-59
2023/10/05 06:17:43;;;;;;;7.45;1.75;;;;;;;;;;5063170;28;19931;-59
2023/10/05 06:20:17;;;;;;;17.30;2.15;;;;;;;;;;5064339;28;20120;-60
2023/10/05 06:22:44;;;;;;;12.93;2.15;;;;;;;;;;5065058;28;20673;-60
2023/10/05 06:25:15;;;;;;;10.55;2.00;;;;;;;;;;5055962;28;20044;-59
2023/10/05 06:27:43;;;;;;;10.50;1.60;;;;;;;;;;5063553;28;20046;-60
2023/10/05 06:30:09;;;;;;;;;;;;;;;;;;5063488;28;20052;-60
2023/10/05 06:32:36;;;;;;;6.72;2.03;;;;;;;;;;5062080;28;20492;-60
2023/10/05 06:35:03;;;;;;;10.95;1.88;;;;;;;;;;5061311;28;20811;-58
2023/10/05 06:37:29;;;;;;;15.20;2.28;;;;;;;;;;5059343;28;20738;-58
2023/10/05 06:39:56;;;;;;;19.08;2.38;;;;;;;;;;5063162;28;20052;-58
2023/10/05 06:42:22;;;;;;;14.07;2.20;;;;;;;;;;5057131;28;20049;-58
2023/10/05 06:44:49;;;;;;;13.43;2.38;;;;;;;;;;5058776;28;20048;-58
2023/10/05 06:50:00;;;;;;;14.25;2.70;;;;;;;;;;5055450;28;20131;-58
2023/10/05 06:52:26;;;;;;;10.73;2.45;;;;;;;;;;5064175;28;20056;-58
2023/10/05 06:54:52;;;;;;;6.97;1.98;;;;;;;;;;5060797;28;20068;-58
2023/10/05 06:57:18;;;;;;;11.00;2.08;;;;;;;;;;5062319;28;20044;-59
2023/10/05 06:59:44;;;;;;;19.40;2.20;;;;;;;;;;5060664;28;20070;-61
2023/10/05 07:02:10;;;;;;;16.55;2.25;;;;;;;;;;5056268;28;20493;-59
2023/10/05 07:04:36;;;;;;;12.25;2.53;;;;;;;;;;5050312;28;20060;-59
2023/10/05 07:07:03;;;;;;;13.77;2.00;;;;;;;;;;5060866;28;20067;-59
2023/10/05 07:09:30;;;;;;;12.60;2.33;;;;;;;;;;5055722;28;20050;-59
2023/10/05 07:11:56;;;;;;;14.70;2.20;;;;;;;;;;5063876;28;20501;-59
2023/10/05 07:14:24;;;;;;;11.82;2.03;;;;;;;;;;5056127;28;20044;-59
2023/10/05 07:16:50;;;;;;;11.10;2.25;;;;;;;;;;5045287;28;20051;-59
2023/10/05 07:19:17;;;;;;;14.85;2.80;;;;;;;;;;5053008;28;20040;-60
2023/10/05 07:21:44;;;;;;;11.82;2.25;;;;;;;;;;5062336;28;20045;-59
2023/10/05 07:24:10;;;;;;;10.32;2.20;;;;;;;;;;5061975;28;20083;-59
2023/10/05 07:26:37;;;;;;;17.08;2.50;;;;;;;;;;5062926;28;20105;-59
2023/10/05 07:29:04;;;;;;;11.50;1.92;;;;;;;;;;5063173;28;20041;-60
2023/10/05 07:31:30;;;;;;;10.90;2.92;;;;;;;;;;5059882;28;20048;-60
2023/10/05 07:33:57;;;;;;;11.80;2.15;;;;;;;;;;5061536;28;20482;-60
2023/10/05 07:36:23;;;;;;;15.23;2.63;;;;;;;;;;5058302;28;20044;-60
2023/10/05 07:38:49;;;;;;;11.38;2.85;;;;;;;;;;5063167;28;20040;-60
2023/10/05 07:41:16;;;;;;;15.90;2.53;;;;;;;;;;5063669;28;20045;-60
2023/10/05 07:43:44;;;;;;;11.60;2.63;;;;;;;;;;5051222;28;20115;-59
2023/10/05 07:46:11;;;;;;;12.85;2.58;;;;;;;;;;5051888;28;20041;-58
2023/10/05 07:48:37;;;;;;;11.30;2.17;;;;;;;;;;5055007;28;20051;-59
2023/10/05 07:51:04;;;;;;;11.82;2.50;;;;;;;;;;5054141;28;20044;-59
2023/10/05 07:53:31;;;;;;;11.70;1.95;;;;;;;;;;5041996;28;20036;-60
2023/10/05 07:55:57;;;;;;;14.60;2.50;;;;;;;;;;5043235;28;20092;-59
2023/10/05 07:58:23;;;;;;;14.27;2.75;;;;;;;;;;5059780;28;20045;-60
2023/10/05 08:00:49;;;;;;;13.90;2.63;;;;;;;;;;5054754;28;20041;-60
2023/10/05 08:03:15;;;;;;;15.45;2.75;;;;;;;;;;5049703;28;20049;-59
2023/10/05 08:05:41;;;;;;;12.80;2.67;;;;;;;;;;5059896;28;20054;-60
2023/10/05 08:08:07;;;;;;;16.77;2.58;;;;;;;;;;5075827;28;20293;-59
2023/10/05 08:10:33;;;;;;;21.48;2.97;;;;;;;;;;5080768;28;20044;-59
2023/10/05 08:13:03;;;;;;;10.55;2.42;;;;;;;;;;5069663;28;20047;-60
2023/10/05 08:15:29;;;;;;;7.93;2.17;;;;;;;;;;5074196;28;20098;-59
2023/10/05 08:17:56;;;;;;;21.17;3.10;;;;;;;;;;5072148;28;20115;-59
2023/10/05 08:20:24;;;;;;;11.43;2.60;;;;;;;;;;5067363;28;20067;-60
2023/10/05 08:22:50;;;;;;;13.65;3.40;;;;;;;;;;5080289;28;20052;-60
2023/10/05 08:25:16;;;;;;;11.40;2.50;;;;;;;;;;5061212;28;20109;-59
2023/10/05 08:27:42;;;;;;;11.95;2.85;;;;;;;;;;5078000;28;20039;-59
2023/10/05 08:30:10;;;;;;;16.45;2.58;;;;;;;;;;5071269;28;20095;-60
2023/10/05 08:32:37;;;;;;;14.00;2.73;;;;;;;;;;5079451;28;20048;-59
2023/10/05 08:35:18;;;;;;;15.02;2.30;;;;;;;;;;5056415;28;20293;-60
2023/10/05 08:37:49;;;;;;;12.45;2.75;;;;;;;;;;5062338;28;20059;-59
2023/10/05 08:43:08;;;;;;;14.57;2.45;;;;;;;;;;5070094;28;20044;-60
2023/10/05 08:45:45;;;;;;;20.65;2.28;;;;;;;;;;5051294;28;20052;-60
2023/10/05 08:48:12;;;;;;;13.25;2.92;;;;;;;;;;5072898;28;20053;-59
2023/10/05 08:50:42;;;;;;;17.85;2.38;;;;;;;;;;5064626;28;20054;-59
2023/10/05 08:53:12;;;;;;;12.85;2.35;;;;;;;;;;5062909;28;20105;-60
2023/10/05 08:55:40;;;;;;;13.30;2.40;;;;;;;;;;5078220;28;20133;-60
2023/10/05 08:58:09;;;;;;;10.85;2.47;;;;;;;;;;5074311;28;20416;-60
2023/10/05 09:00:38;;;;;;;12.10;2.60;;;;;;;;;;5074510;28;20055;-59
2023/10/05 09:03:28;;;;;;;14.63;3.17;;;;;;;;;;5073604;28;20078;-59
2023/10/05 09:06:20;;;;;;;20.30;2.90;;;;;;;;;;5072905;28;20052;-59
2023/10/05 09:08:51;;;;;;;19.55;2.88;;;;;;;;;;5075604;28;20540;-59
2023/10/05 09:11:20;;;;;;;19.02;2.50;;;;;;;;;;5073333;28;20687;-59
2023/10/05 09:13:46;;;;;;;;;;;;;;;;;;5076699;28;20505;-59
2023/10/05 09:16:15;;;;;;;20.88;3.05;;;;;;;;;;5054074;28;19931;-59
2023/10/05 09:18:51;;;;;;;17.98;2.92;;;;;;;;;;5066021;28;20753;-59
2023/10/05 09:21:19;;;;;;;20.20;3.78;;;;;;;;;;5080472;28;20064;-59
2023/10/05 09:23:46;;;;;;;13.15;2.40;;;;;;;;;;5079126;28;20784;-59
2023/10/05 09:26:33;;;;;;;14.73;2.67;;;;;;;;;;5077546;28;20134;-59
2023/10/05 09:29:21;;;;;;;13.18;3.20;;;;;;;;;;5078907;28;20043;-59
2023/10/05 09:31:51;;;;;;;15.23;3.45;;;;;;;;;;5076248;28;20076;-59
2023/10/05 09:34:36;;;;;;;15.30;2.88;;;;;;;;;;5070746;28;20048;-59
2023/10/05 09:37:05;;;;;;;18.58;3.10;;;;;;;;;;5068912;28;20044;-59
2023/10/05 09:39:49;;;;;;;13.73;2.90;;;;;;;;;;5072474;28;20721;-59
2023/10/05 09:42:22;;;;;;;12.13;2.58;;;;;;;;;;5067945;28;20060;-59
2023/10/05 09:44:52;;;;;;;19.05;3.00;;;;;;;;;;5067988;28;20057;-59
2023/10/05 09:47:25;;;;;;;15.70;2.90;;;;;;;;;;5064503;28;20044;-59
2023/10/05 09:49:52;;;;;;;18.17;3.13;;;;;;;;;;5067654;28;20121;-59
2023/10/05 09:52:21;;;;;;;15.48;2.80;;;;;;;;;;5070241;28;20044;-59
2023/10/05 09:54:49;;;;;;;14.63;2.88;;;;;;;;;;5076058;28;20649;-60
2023/10/05 09:57:17;;;;;;;15.93;3.33;;;;;;;;;;5077086;28;20131;-60
2023/10/05 09:59:45;;;;;;;16.15;2.72;;;;;;;;;;5056800;28;20306;-59
2023/10/05 10:02:12;;;;;;;14.82;2.75;;;;;;;;;;5074845;28;20062;-60
2023/10/05 10:04:39;;;;;;;12.77;2.38;;;;;;;;;;5068873;28;20437;-59
2023/10/05 10:07:15;;;;;;;15.73;3.08;;;;;;;;;;5082050;28;20117;-59
2023/10/05 10:09:44;;;;;;;15.30;3.55;;;;;;;;;;5067649;28;20074;-60
2023/10/05 10:12:11;;;;;;;12.52;2.83;;;;;;;;;;5065519;28;20056;-59
2023/10/05 10:14:41;;;;;;;12.48;3.13;;;;;;;;;;5075288;28;20509;-59
2023/10/05 10:17:24;;;;;;;16.77;2.85;;;;;;;;;;5082051;28;20083;-59
2023/10/05 10:19:55;;;;;;;15.05;2.55;;;;;;;;;;5071305;28;20048;-59
2023/10/05 10:22:28;;;;;;;14.43;2.92;;;;;;;;;;5077149;28;20052;-59
2023/10/05 10:24:56;;;;;;;12.73;2.58;;;;;;;;;;5064054;28;20044;-61
2023/10/05 10:27:28;;;;;;;14.43;2.70;;;;;;;;;;5080925;28;20079;-59
2023/10/05 10:29:58;;;;;;;16.33;3.15;;;;;;;;;;5081955;28;20049;-60
2023/10/05 10:32:31;;;;;;;25.17;3.28;;;;;;;;;;5081665;28;20051;-59
2023/10/05 10:35:10;;;;;;;17.77;2.80;;;;;;;;;;5059423;28;20056;-59
2023/10/05 10:37:48;;;;;;;8.55;2.42;;;;;;;;;;5077650;28;20112;-59
2023/10/05 10:42:50;;;;;;;12.98;2.38;;;;;;;;;;5075717;28;20466;-59
2023/10/05 10:45:23;;;;;;;15.63;2.90;;;;;;;;;;5069956;28;20083;-59
2023/10/05 10:47:50;;;;;;;14.43;2.60;;;;;;;;;;5073202;28;20519;-60
2023/10/05 10:50:22;;;;;;;13.23;2.80;;;;;;;;;;5069801;28;20759;-60
2023/10/05 10:52:50;;;;;;;12.15;2.90;;;;;;;;;;5077425;28;20044;-60
2023/10/05 10:55:16;;;;;;;19.27;3.10;;;;;;;;;;5080827;28;20052;-59
2023/10/05 10:57:47;;;;;;;13.90;3.00;;;;;;;;;;5078441;28;20511;-60
2023/10/05 11:02:58;;;;;;;8.90;1.98;;;;;;;;;;5069475;28;20051;-60
2023/10/05 11:05:37;;;;;;;14.02;2.40;;;;;;;;;;5080658;28;20070;-60
2023/10/05 11:08:07;;;;;;;10.40;2.70;;;;;;;;;;5067952;28;20505;-60
2023/10/05 11:10:33;;;;;;;9.73;2.83;;;;;;;;;;5069237;28;20128;-60
2023/10/05 11:13:14;;;;;;;12.85;3.03;;;;;;;;;;5071260;28;20145;-59
2023/10/05 11:15:50;;;;;;;11.20;2.58;;;;;;;;;;5072014;28;20052;-59
2023/10/05 11:18:18;;;;;;;6.95;2.13;;;;;;;;;;5071423;28;20040;-60
2023/10/05 11:20:51;;;;;;;;;;;;;;;;;;5076999;28;20071;-59
2023/10/05 11:23:23;;;;;;;10.30;2.13;;;;;;;;;;5077743;28;19950;-59
2023/10/05 11:25:51;;;;;;;9.82;1.75;;;;;;;;;;5068233;28;20493;-60
2023/10/05 11:28:24;;;;;;;6.97;2.15;;;;;;;;;;5076253;28;20068;-59
2023/10/05 11:30:49;;;;;;;8.20;2.05;;;;;;;;;;5074234;28;20044;-59
2023/10/05 11:33:15;;;;;;;11.63;2.15;;;;;;;;;;5074356;28;20243;-59
2023/10/05 11:35:48;;;;;;;9.90;1.88;;;;;;;;;;5067302;28;20040;-59
2023/10/05 11:38:16;;;;;;;7.95;2.35;;;;;;;;;;5079661;28;20087;-60
2023/10/05 11:40:49;;;;;;;12.93;2.77;;;;;;;;;;5052267;28;20048;-60
2023/10/05 11:43:16;;;;;;;11.05;2.50;;;;;;;;;;5077587;28;20275;-60
2023/10/05 11:45:57;;;;;;;15.45;2.55;;;;;;;;;;5073692;28;20040;-60
2023/10/05 11:48:35;;;;;;;6.72;2.42;;;;;;;;;;5071263;28;20123;-59
2023/10/05 11:51:09;;;;;;;9.45;2.33;;;;;;;;;;5065510;28;20064;-60
2023/10/05 11:53:35;;;;;;;11.50;3.05;;;;;;;;;;5080174;28;20075;-60
2023/10/05 11:56:04;;;;;;;11.25;2.28;;;;;;;;;;5061220;28;20083;-59
2023/10/05 11:58:33;;;;;;;12.32;2.47;;;;;;;;;;5076225;28;20043;-60
2023/10/05 12:01:03;;;;;;;12.25;2.25;;;;;;;;;;5069740;28;20123;-60
2023/10/05 12:03:32;;;;;;;20.27;3.85;;;;;;;;;;5078049;28;20051;-60
2023/10/05 12:06:02;;;;;;;12.75;2.45;;;;;;;;;;5071241;28;20048;-60
2023/10/05 12:08:31;;;;;;;16.05;3.05;;;;;;;;;;5071458;28;20119;-60
2023/10/05 12:11:00;;;;;;;11.70;2.60;;;;;;;;;;5062810;28;20052;-60
2023/10/05 12:13:29;;;;;;;16.20;2.90;;;;;;;;;;5065974;28;20844;-60
2023/10/05 12:15:58;;;;;;;13.68;2.35;;;;;;;;;;5062383;28;20044;-59
2023/10/05 12:18:24;;;;;;;11.38;2.28;;;;;;;;;;5063080;28;20165;-59
2023/10/05 12:20:50;;;;;;;10.20;2.58;;;;;;;;;;5067321;28;20032;-60
2023/10/05 12:23:17;;;;;;;11.02;2.53;;;;;;;;;;5065775;28;20060;-59
2023/10/05 12:25:44;;;;;;;14.68;2.55;;;;;;;;;;5079301;28;20040;-59
2023/10/05 12:28:11;;;;;;;13.50;3.20;;;;;;;;;;5077911;28;20798;-59
2023/10/05 12:30:39;;;;;;;11.93;2.50;;;;;;;;;;5076887;28;20047;-59
2023/10/05 12:33:06;;;;;;;11.63;2.35;;;;;;;;;;5078597;28;20915;-59
2023/10/05 12:35:32;;;;;;;12.25;2.88;;;;;;;;;;5076831;28;20411;-59
2023/10/05 12:37:58;;;;;;;9.02;1.88;;;;;;;;;;5077676;28;20040;-60
2023/10/05 12:40:33;;;;;;;12.35;2.42;;;;;;;;;;5076703;28;20052;-59
2023/10/05 12:43:00;;;;;;;5.50;1.95;;;;;;;;;;5078468;28;20520;-59
2023/10/05 12:45:26;;;;;;;10.48;2.38;;;;;;;;;;5077676;28;20040;-58
2023/10/05 12:47:55;;;;;;;8.68;2.20;;;;;;;;;;5074784;28;20821;-58
2023/10/05 12:50:22;;;;;;;6.72;1.60;;;;;;;;;;5048448;28;20053;-59
2023/10/05 12:52:51;;;;;;;8.15;1.60;;;;;;;;;;5074711;28;20044;-59
2023/10/05 12:55:22;;;;;;;9.20;1.73;;;;;;;;;;5078052;28;20717;-59
2023/10/05 12:57:52;;;;;;;8.27;1.70;;;;;;;;;;5078501;28;20050;-59
2023/10/05 13:00:19;;;;;;;8.68;1.27;;;;;;;;;;5066570;28;20135;-59
2023/10/05 13:02:52;;;;;;;5.65;1.58;;;;;;;;;;5072583;28;20516;-59
2023/10/05 13:05:22;;;;;;;7.65;1.50;;;;;;;;;;5052220;28;20056;-59
2023/10/05 13:07:53;;;;;;;6.75;1.90;;;;;;;;;;5063822;28;20072;-59
2023/10/05 13:10:26;;;;;;;11.13;1.83;;;;;;;;;;5066976;28;20044;-59
2023/10/05 13:12:52;;;;;;;8.30;1.63;;;;;;;;;;5070374;28;20044;-59
2023/10/05 13:15:19;;;;;;;10.07;1.55;;;;;;;;;;5077713;28;20052;-59
2023/10/05 13:17:48;;;;;;;6.10;1.52;;;;;;;;;;5070530;28;20037;-59
2023/10/05 13:20:14;;;;;;;9.13;1.77;;;;;;;;;;5071938;28;20048;-59
2023/10/05 13:22:44;;;;;;;8.07;2.10;;;;;;;;;;5067783;28;20147;-59
2023/10/05 13:25:13;;;;;;;8.85;1.85;;;;;;;;;;5079785;28;20119;-59
2023/10/05 13:27:39;;;;;;;9.55;2.50;;;;;;;;;;5078583;28;20071;-59
2023/10/05 13:30:08;;;;;;;12.02;2.00;;;;;;;;;;5074521;28;20741;-59
2023/10/05 13:32:34;;;;;;;8.77;1.98;;;;;;;;;;5069720;28;20059;-59
2023/10/05 13:35:03;;;;;;;7.07;1.80;;;;;;;;;;5079646;28;20044;-59
2023/10/05 13:37:29;;;;;;;;;;;;;;;;;;5078181;28;20048;-59
2023/10/05 13:40:00;;;;;;;9.23;2.15;;;;;;;;;;5079333;28;20282;-59
2023/10/05 13:42:26;;;;;;;7.88;1.70;;;;;;;;;;5078162;28;20086;-59
2023/10/05 13:44:55;;;;;;;6.15;1.55;;;;;;;;;;5080468;28;20123;-59
2023/10/05 13:47:23;;;;;;;5.50;1.65;;;;;;;;;;5071345;28;20108;-59
2023/10/05 13:49:54;;;;;;;7.75;2.15;;;;;;;;;;5063319;28;20576;-59
2023/10/05 13:52:21;;;;;;;6.22;1.80;;;;;;;;;;5080890;28;20051;-59
2023/10/05 13:54:51;;;;;;;6.47;1.63;;;;;;;;;;5075230;28;20044;-59
2023/10/05 13:57:20;;;;;;;8.43;1.50;;;;;;;;;;5069153;28;20052;-59
2023/10/05 13:59:47;;;;;;;9.60;1.67;;;;;;;;;;5067307;28;20055;-60
2023/10/05 14:02:13;;;;;;;6.60;1.70;;;;;;;;;;5078747;28;20048;-61
2023/10/05 14:04:43;;;;;;;7.53;1.65;;;;;;;;;;5069108;28;20132;-60
2023/10/05 14:07:10;;;;;;;8.27;1.30;;;;;;;;;;5082563;28;20496;-61
2023/10/05 14:09:43;;;;;;;8.48;1.95;;;;;;;;;;5067086;28;20045;-61
2023/10/05 14:12:10;;;;;;;7.25;1.35;;;;;;;;;;5074576;28;20067;-61
2023/10/05 14:14:36;;;;;;;10.13;1.80;;;;;;;;;;5064121;28;20050;-60
2023/10/05 14:17:06;;;;;;;8.85;1.70;;;;;;;;;;5079804;28;20044;-61
2023/10/05 14:19:33;;;;;;;7.50;1.60;;;;;;;;;;5083180;28;20083;-61
2023/10/05 14:22:04;;;;;;;8.73;1.58;;;;;;;;;;5080033;28;20409;-61
2023/10/05 14:24:33;;;;;;;12.80;1.55;;;;;;;;;;5081553;28;20048;-61
2023/10/05 14:26:59;;;;;;;17.63;2.28;;;;;;;;;;5080254;28;20063;-61
2023/10/05 14:29:34;;;;;;;8.57;1.40;;;;;;;;;;5060691;28;20081;-60
2023/10/05 14:32:04;;;;;;;9.43;1.90;;;;;;;;;;5071930;28;20117;-61
2023/10/05 14:34:33;;;;;;;10.93;1.63;;;;;;;;;;5077511;28;20080;-61
2023/10/05 14:37:01;;;;;;;8.48;1.90;;;;;;;;;;5072097;28;20044;-61
2023/10/05 14:39:33;;;;;;;12.27;1.67;;;;;;;;;;5079446;28;20085;-61
2023/10/05 14:42:00;;;;;;;6.40;1.30;;;;;;;;;;5066029;28;20045;-61
2023/10/05 14:44:28;;;;;;;9.18;1.70;;;;;;;;;;5066794;28;20036;-60
2023/10/05 14:46:55;;;;;;;9.73;1.70;;;;;;;;;;5073161;28;20044;-60
2023/10/05 14:49:25;;;;;;;10.52;1.83;;;;;;;;;;5065745;28;20066;-60
2023/10/05 14:51:51;;;;;;;8.18;1.35;;;;;;;;;;5072832;28;20089;-61
2023/10/05 14:54:21;;;;;;;5.43;1.20;;;;;;;;;;5081283;28;20070;-61
2023/10/05 14:56:47;;;;;;;11.10;1.60;;;;;;;;;;5078704;28;20058;-60
2023/10/05 14:59:13;;;;;;;9.63;1.42;;;;;;;;;;5079389;28;20047;-60
2023/10/05 15:01:40;;;;;;;11.15;1.50;;;;;;;;;;5072507;28;20040;-61
2023/10/05 15:04:06;;;;;;;15.65;2.20;;;;;;;;;;5070739;28;20048;-61
2023/10/05 15:06:32;;;;;;;7.63;1.67;;;;;;;;;;5068333;28;20061;-61
2023/10/05 15:08:59;;;;;;;6.00;1.73;;;;;;;;;;5081687;28;20040;-60
2023/10/05 15:11:29;;;;;;;6.07;1.35;;;;;;;;;;5082323;28;20048;-61
2023/10/05 15:13:55;;;;;;;9.57;1.60;;;;;;;;;;5081811;28;20115;-61
2023/10/05 15:16:22;;;;;;;8.05;1.50;;;;;;;;;;5069307;28;20064;-60
2023/10/05 15:18:48;;;;;;;8.38;1.63;;;;;;;;;;5074414;28;20036;-61